sensor_id;sensor_type;location;lat;lon;timestamp;temperature;humidity
72712;SHT30;60828;40.292;17.998;2022-12-18T00:01:40;12.46;87.54
72712;SHT30;60828;40.292;17.998;2022-12-18T00:04:06;12.42;87.56
72712;SHT30;60828;40.292;17.998;2022-12-18T00:06:35;12.38;87.46
72712;SHT30;60828;40.292;17.998;2022-12-18T00:09:02;12.35;87.43
72712;SHT30;60828;40.292;17.998;2022-12-18T00:11:30;12.29;87.25
72712;SHT30;60828;40.292;17.998;2022-12-18T00:13:57;12.25;87.33
72712;SHT30;60828;40.292;17.998;2022-12-18T00:16:24;12.14;87.31
72712;SHT30;60828;40.292;17.998;2022-12-18T00:18:53;12.10;87.10
72712;SHT30;60828;40.292;17.998;2022-12-18T00:21:20;12.07;87.26
72712;SHT30;60828;40.292;17.998;2022-12-18T00:23:47;12.07;87.28
72712;SHT30;60828;40.292;17.998;2022-12-18T00:26:19;12.10;87.32
72712;SHT30;60828;40.292;17.998;2022-12-18T00:28:46;12.01;87.14
72712;SHT30;60828;40.292;17.998;2022-12-18T00:31:15;11.98;87.19
72712;SHT30;60828;40.292;17.998;2022-12-18T00:33:41;11.93;87.19
72712;SHT30;60828;40.292;17.998;2022-12-18T00:36:10;11.88;87.15
72712;SHT30;60828;40.292;17.998;2022-12-18T00:38:37;11.84;87.16
72712;SHT30;60828;40.292;17.998;2022-12-18T00:41:03;11.77;87.61
72712;SHT30;60828;40.292;17.998;2022-12-18T00:43:29;11.88;87.63
72712;SHT30;60828;40.292;17.998;2022-12-18T00:45:54;11.93;87.62
72712;SHT30;60828;40.292;17.998;2022-12-18T00:48:20;11.94;87.56
72712;SHT30;60828;40.292;17.998;2022-12-18T00:50:48;11.86;87.64
72712;SHT30;60828;40.292;17.998;2022-12-18T00:53:13;11.93;87.56
72712;SHT30;60828;40.292;17.998;2022-12-18T00:55:40;11.84;87.92
72712;SHT30;60828;40.292;17.998;2022-12-18T00:58:07;11.87;87.91
72712;SHT30;60828;40.292;17.998;2022-12-18T01:00:32;11.86;87.91
72712;SHT30;60828;40.292;17.998;2022-12-18T01:02:58;11.93;87.73
72712;SHT30;60828;40.292;17.998;2022-12-18T01:05:23;11.84;87.70
72712;SHT30;60828;40.292;17.998;2022-12-18T01:07:49;11.91;87.49
72712;SHT30;60828;40.292;17.998;2022-12-18T01:10:14;12.00;87.35
72712;SHT30;60828;40.292;17.998;2022-12-18T01:12:40;12.01;87.39
72712;SHT30;60828;40.292;17.998;2022-12-18T01:15:06;12.04;87.26
72712;SHT30;60828;40.292;17.998;2022-12-18T01:17:33;11.93;86.92
72712;SHT30;60828;40.292;17.998;2022-12-18T01:19:58;11.83;87.32
72712;SHT30;60828;40.292;17.998;2022-12-18T01:22:24;11.77;87.38
72712;SHT30;60828;40.292;17.998;2022-12-18T01:24:49;11.81;87.33
72712;SHT30;60828;40.292;17.998;2022-12-18T01:27:15;11.88;87.04
72712;SHT30;60828;40.292;17.998;2022-12-18T01:29:41;11.87;87.12
72712;SHT30;60828;40.292;17.998;2022-12-18T01:32:06;11.94;87.11
72712;SHT30;60828;40.292;17.998;2022-12-18T01:34:32;11.87;87.03
72712;SHT30;60828;40.292;17.998;2022-12-18T01:36:57;11.83;87.12
72712;SHT30;60828;40.292;17.998;2022-12-18T01:39:23;11.74;87.45
72712;SHT30;60828;40.292;17.998;2022-12-18T01:41:48;11.73;87.61
72712;SHT30;60828;40.292;17.998;2022-12-18T01:44:55;11.77;87.73
72712;SHT30;60828;40.292;17.998;2022-12-18T01:47:35;11.73;87.69
72712;SHT30;60828;40.292;17.998;2022-12-18T01:50:14;11.74;87.90
72712;SHT30;60828;40.292;17.998;2022-12-18T01:52:42;11.71;87.85
72712;SHT30;60828;40.292;17.998;2022-12-18T01:55:10;11.77;87.94
72712;SHT30;60828;40.292;17.998;2022-12-18T01:57:37;11.81;87.94
72712;SHT30;60828;40.292;17.998;2022-12-18T02:00:10;11.91;87.81
72712;SHT30;60828;40.292;17.998;2022-12-18T02:02:37;11.90;87.73
72712;SHT30;60828;40.292;17.998;2022-12-18T02:05:03;11.90;87.47
72712;SHT30;60828;40.292;17.998;2022-12-18T02:08:19;11.93;87.36
72712;SHT30;60828;40.292;17.998;2022-12-18T02:10:41;11.88;87.38
72712;SHT30;60828;40.292;17.998;2022-12-18T02:14:00;11.84;87.34
72712;SHT30;60828;40.292;17.998;2022-12-18T02:18:44;11.79;87.42
72712;SHT30;60828;40.292;17.998;2022-12-18T02:24:00;11.74;87.52
72712;SHT30;60828;40.292;17.998;2022-12-18T02:26:36;11.76;87.63
72712;SHT30;60828;40.292;17.998;2022-12-18T02:29:10;11.83;87.64
72712;SHT30;60828;40.292;17.998;2022-12-18T02:31:43;11.80;87.56
72712;SHT30;60828;40.292;17.998;2022-12-18T02:34:11;11.81;87.55
72712;SHT30;60828;40.292;17.998;2022-12-18T02:36:39;11.81;87.50
72712;SHT30;60828;40.292;17.998;2022-12-18T02:39:07;11.81;87.40
72712;SHT30;60828;40.292;17.998;2022-12-18T02:41:34;11.77;87.46
72712;SHT30;60828;40.292;17.998;2022-12-18T02:44:07;11.74;87.50
72712;SHT30;60828;40.292;17.998;2022-12-18T02:46:43;11.74;87.46
72712;SHT30;60828;40.292;17.998;2022-12-18T02:54:23;11.69;87.54
72712;SHT30;60828;40.292;17.998;2022-12-18T02:56:55;11.69;87.49
72712;SHT30;60828;40.292;17.998;2022-12-18T03:00:00;11.73;87.51
72712;SHT30;60828;40.292;17.998;2022-12-18T03:05:16;11.58;87.55
72712;SHT30;60828;40.292;17.998;2022-12-18T03:07:49;11.58;87.58
72712;SHT30;60828;40.292;17.998;2022-12-18T03:10:20;11.59;87.54
72712;SHT30;60828;40.292;17.998;2022-12-18T03:12:56;11.59;87.42
72712;SHT30;60828;40.292;17.998;2022-12-18T03:15:30;11.53;87.40
72712;SHT30;60828;40.292;17.998;2022-12-18T03:18:04;11.70;87.16
72712;SHT30;60828;40.292;17.998;2022-12-18T03:20:31;11.63;87.19
72712;SHT30;60828;40.292;17.998;2022-12-18T03:23:11;11.59;87.30
72712;SHT30;60828;40.292;17.998;2022-12-18T03:25:41;11.55;87.33
72712;SHT30;60828;40.292;17.998;2022-12-18T03:28:10;11.56;87.49
72712;SHT30;60828;40.292;17.998;2022-12-18T03:30:39;11.56;87.46
72712;SHT30;60828;40.292;17.998;2022-12-18T03:33:10;11.59;87.47
72712;SHT30;60828;40.292;17.998;2022-12-18T03:35:41;11.60;87.51
72712;SHT30;60828;40.292;17.998;2022-12-18T03:38:09;11.56;87.58
72712;SHT30;60828;40.292;17.998;2022-12-18T03:40:57;11.56;87.48
72712;SHT30;60828;40.292;17.998;2022-12-18T03:46:06;11.62;87.54
72712;SHT30;60828;40.292;17.998;2022-12-18T03:48:39;11.60;87.40
72712;SHT30;60828;40.292;17.998;2022-12-18T03:51:16;11.60;87.40
72712;SHT30;60828;40.292;17.998;2022-12-18T03:53:49;11.56;87.30
72712;SHT30;60828;40.292;17.998;2022-12-18T03:56:18;11.59;87.22
72712;SHT30;60828;40.292;17.998;2022-12-18T03:58:45;11.60;86.94
72712;SHT30;60828;40.292;17.998;2022-12-18T04:01:13;11.65;86.39
72712;SHT30;60828;40.292;17.998;2022-12-18T04:03:41;11.63;85.90
72712;SHT30;60828;40.292;17.998;2022-12-18T04:06:07;11.63;85.91
72712;SHT30;60828;40.292;17.998;2022-12-18T04:08:34;11.59;85.94
72712;SHT30;60828;40.292;17.998;2022-12-18T04:11:01;11.58;85.97
72712;SHT30;60828;40.292;17.998;2022-12-18T04:13:34;11.56;85.94
72712;SHT30;60828;40.292;17.998;2022-12-18T04:16:00;11.56;85.95
72712;SHT30;60828;40.292;17.998;2022-12-18T04:18:26;11.53;85.85
72712;SHT30;60828;40.292;17.998;2022-12-18T04:20:52;11.53;85.70
72712;SHT30;60828;40.292;17.998;2022-12-18T04:23:17;11.44;85.80
72712;SHT30;60828;40.292;17.998;2022-12-18T04:25:43;11.43;85.82
72712;SHT30;60828;40.292;17.998;2022-12-18T04:28:08;11.43;85.91
72712;SHT30;60828;40.292;17.998;2022-12-18T04:30:34;11.44;85.52
72712;SHT30;60828;40.292;17.998;2022-12-18T04:32:59;11.50;85.61
72712;SHT30;60828;40.292;17.998;2022-12-18T04:35:25;11.44;85.53
72712;SHT30;60828;40.292;17.998;2022-12-18T04:37:50;11.46;85.56
72712;SHT30;60828;40.292;17.998;2022-12-18T04:40:16;11.53;85.48
72712;SHT30;60828;40.292;17.998;2022-12-18T04:42:41;11.59;85.18
72712;SHT30;60828;40.292;17.998;2022-12-18T04:45:07;11.60;84.94
72712;SHT30;60828;40.292;17.998;2022-12-18T04:47:33;11.65;84.93
72712;SHT30;60828;40.292;17.998;2022-12-18T04:49:58;11.65;85.08
72712;SHT30;60828;40.292;17.998;2022-12-18T04:52:24;11.71;84.74
72712;SHT30;60828;40.292;17.998;2022-12-18T04:54:50;11.84;84.36
72712;SHT30;60828;40.292;17.998;2022-12-18T04:57:15;11.88;83.74
72712;SHT30;60828;40.292;17.998;2022-12-18T04:59:40;11.94;83.79
72712;SHT30;60828;40.292;17.998;2022-12-18T05:02:06;11.98;83.66
72712;SHT30;60828;40.292;17.998;2022-12-18T05:04:31;11.88;83.68
72712;SHT30;60828;40.292;17.998;2022-12-18T05:06:57;11.95;83.66
72712;SHT30;60828;40.292;17.998;2022-12-18T05:09:23;11.84;83.92
72712;SHT30;60828;40.292;17.998;2022-12-18T05:11:48;11.74;84.20
72712;SHT30;60828;40.292;17.998;2022-12-18T05:14:14;11.53;84.62
72712;SHT30;60828;40.292;17.998;2022-12-18T05:16:40;11.47;84.84
72712;SHT30;60828;40.292;17.998;2022-12-18T05:19:06;11.43;84.90
72712;SHT30;60828;40.292;17.998;2022-12-18T05:21:31;11.35;85.05
72712;SHT30;60828;40.292;17.998;2022-12-18T05:23:56;11.23;85.32
72712;SHT30;60828;40.292;17.998;2022-12-18T05:26:22;11.28;85.61
72712;SHT30;60828;40.292;17.998;2022-12-18T05:28:47;11.28;85.83
72712;SHT30;60828;40.292;17.998;2022-12-18T05:31:13;11.28;85.98
72712;SHT30;60828;40.292;17.998;2022-12-18T05:33:38;11.29;86.25
72712;SHT30;60828;40.292;17.998;2022-12-18T05:36:06;11.25;86.43
72712;SHT30;60828;40.292;17.998;2022-12-18T05:38:35;11.35;86.56
72712;SHT30;60828;40.292;17.998;2022-12-18T05:41:01;11.44;86.68
72712;SHT30;60828;40.292;17.998;2022-12-18T05:43:27;11.43;86.51
72712;SHT30;60828;40.292;17.998;2022-12-18T05:45:54;11.43;86.58
72712;SHT30;60828;40.292;17.998;2022-12-18T05:48:20;11.35;86.74
72712;SHT30;60828;40.292;17.998;2022-12-18T05:50:47;11.38;86.79
72712;SHT30;60828;40.292;17.998;2022-12-18T05:53:15;11.38;86.87
72712;SHT30;60828;40.292;17.998;2022-12-18T05:55:42;11.40;86.85
72712;SHT30;60828;40.292;17.998;2022-12-18T05:58:09;11.35;86.85
72712;SHT30;60828;40.292;17.998;2022-12-18T06:00:37;11.39;86.92
72712;SHT30;60828;40.292;17.998;2022-12-18T06:03:06;11.46;87.02
72712;SHT30;60828;40.292;17.998;2022-12-18T06:05:49;11.42;87.06
72712;SHT30;60828;40.292;17.998;2022-12-18T06:08:15;11.38;87.17
72712;SHT30;60828;40.292;17.998;2022-12-18T06:10:41;11.36;87.11
72712;SHT30;60828;40.292;17.998;2022-12-18T06:13:07;11.40;86.95
72712;SHT30;60828;40.292;17.998;2022-12-18T06:15:36;11.50;86.98
72712;SHT30;60828;40.292;17.998;2022-12-18T06:18:02;11.58;86.81
72712;SHT30;60828;40.292;17.998;2022-12-18T06:20:27;11.52;86.97
72712;SHT30;60828;40.292;17.998;2022-12-18T06:22:53;11.62;86.99
72712;SHT30;60828;40.292;17.998;2022-12-18T06:25:18;11.59;86.94
72712;SHT30;60828;40.292;17.998;2022-12-18T06:27:44;11.56;87.04
72712;SHT30;60828;40.292;17.998;2022-12-18T06:30:10;11.53;87.19
72712;SHT30;60828;40.292;17.998;2022-12-18T06:32:35;11.67;87.17
72712;SHT30;60828;40.292;17.998;2022-12-18T06:35:01;11.74;87.10
72712;SHT30;60828;40.292;17.998;2022-12-18T06:37:30;11.70;87.06
72712;SHT30;60828;40.292;17.998;2022-12-18T06:39:56;11.83;87.03
72712;SHT30;60828;40.292;17.998;2022-12-18T06:42:23;11.83;87.11
72712;SHT30;60828;40.292;17.998;2022-12-18T06:44:48;11.98;86.85
72712;SHT30;60828;40.292;17.998;2022-12-18T06:47:14;11.98;87.00
72712;SHT30;60828;40.292;17.998;2022-12-18T06:49:39;12.11;87.11
72712;SHT30;60828;40.292;17.998;2022-12-18T06:52:05;12.34;86.86
72712;SHT30;60828;40.292;17.998;2022-12-18T06:54:30;12.52;86.31
72712;SHT30;60828;40.292;17.998;2022-12-18T06:56:56;12.83;86.41
72712;SHT30;60828;40.292;17.998;2022-12-18T06:59:21;13.01;85.60
72712;SHT30;60828;40.292;17.998;2022-12-18T07:01:47;13.03;85.60
72712;SHT30;60828;40.292;17.998;2022-12-18T07:04:12;13.28;85.07
72712;SHT30;60828;40.292;17.998;2022-12-18T07:06:38;13.35;85.06
72712;SHT30;60828;40.292;17.998;2022-12-18T07:09:03;13.65;84.59
72712;SHT30;60828;40.292;17.998;2022-12-18T07:11:29;13.91;84.26
72712;SHT30;60828;40.292;17.998;2022-12-18T07:13:57;14.27;83.21
72712;SHT30;60828;40.292;17.998;2022-12-18T07:16:22;14.67;82.69
72712;SHT30;60828;40.292;17.998;2022-12-18T07:18:48;15.06;81.93
72712;SHT30;60828;40.292;17.998;2022-12-18T07:21:16;15.53;80.90
72712;SHT30;60828;40.292;17.998;2022-12-18T07:23:42;16.50;79.41
72712;SHT30;60828;40.292;17.998;2022-12-18T07:26:10;18.28;74.77
72712;SHT30;60828;40.292;17.998;2022-12-18T07:28:37;20.32;67.36
72712;SHT30;60828;40.292;17.998;2022-12-18T07:31:07;21.55;63.11
72712;SHT30;60828;40.292;17.998;2022-12-18T07:33:34;22.88;60.61
72712;SHT30;60828;40.292;17.998;2022-12-18T07:36:00;23.56;57.01
72712;SHT30;60828;40.292;17.998;2022-12-18T07:38:26;23.85;57.08
72712;SHT30;60828;40.292;17.998;2022-12-18T07:40:52;24.32;54.77
72712;SHT30;60828;40.292;17.998;2022-12-18T07:43:17;24.87;53.16
72712;SHT30;60828;40.292;17.998;2022-12-18T07:45:43;25.69;53.33
72712;SHT30;60828;40.292;17.998;2022-12-18T07:48:09;26.41;50.35
72712;SHT30;60828;40.292;17.998;2022-12-18T07:50:35;27.26;49.34
72712;SHT30;60828;40.292;17.998;2022-12-18T07:53:00;27.97;47.74
72712;SHT30;60828;40.292;17.998;2022-12-18T07:55:29;27.75;46.94
72712;SHT30;60828;40.292;17.998;2022-12-18T07:57:55;27.40;47.21
72712;SHT30;60828;40.292;17.998;2022-12-18T08:00:21;28.05;47.74
72712;SHT30;60828;40.292;17.998;2022-12-18T08:02:46;28.54;45.85
72712;SHT30;60828;40.292;17.998;2022-12-18T08:05:12;28.85;45.04
72712;SHT30;60828;40.292;17.998;2022-12-18T08:07:38;28.87;45.71
72712;SHT30;60828;40.292;17.998;2022-12-18T08:10:04;29.18;45.21
72712;SHT30;60828;40.292;17.998;2022-12-18T08:12:30;29.15;45.20
72712;SHT30;60828;40.292;17.998;2022-12-18T08:14:55;27.82;47.08
72712;SHT30;60828;40.292;17.998;2022-12-18T08:17:21;29.03;45.24
72712;SHT30;60828;40.292;17.998;2022-12-18T08:19:46;27.88;46.93
72712;SHT30;60828;40.292;17.998;2022-12-18T08:22:12;28.50;46.36
72712;SHT30;60828;40.292;17.998;2022-12-18T08:24:37;27.76;47.61
72712;SHT30;60828;40.292;17.998;2022-12-18T08:27:03;27.82;49.00
72712;SHT30;60828;40.292;17.998;2022-12-18T08:29:28;28.06;46.46
72712;SHT30;60828;40.292;17.998;2022-12-18T08:31:55;27.69;47.65
72712;SHT30;60828;40.292;17.998;2022-12-18T08:34:21;27.49;48.69
72712;SHT30;60828;40.292;17.998;2022-12-18T08:36:46;28.55;45.97
72712;SHT30;60828;40.292;17.998;2022-12-18T08:39:12;29.03;45.27
72712;SHT30;60828;40.292;17.998;2022-12-18T08:41:37;29.23;46.08
72712;SHT30;60828;40.292;17.998;2022-12-18T08:44:03;28.82;45.77
72712;SHT30;60828;40.292;17.998;2022-12-18T08:46:47;28.24;46.65
72712;SHT30;60828;40.292;17.998;2022-12-18T08:49:12;28.99;46.78
72712;SHT30;60828;40.292;17.998;2022-12-18T08:51:38;29.50;45.03
72712;SHT30;60828;40.292;17.998;2022-12-18T08:54:05;29.23;45.91
72712;SHT30;60828;40.292;17.998;2022-12-18T08:56:30;28.51;46.44
72712;SHT30;60828;40.292;17.998;2022-12-18T08:58:56;29.40;45.92
72712;SHT30;60828;40.292;17.998;2022-12-18T09:01:22;30.05;44.06
72712;SHT30;60828;40.292;17.998;2022-12-18T09:03:51;29.15;45.71
72712;SHT30;60828;40.292;17.998;2022-12-18T09:06:18;28.88;46.79
72712;SHT30;60828;40.292;17.998;2022-12-18T09:08:44;27.65;48.31
72712;SHT30;60828;40.292;17.998;2022-12-18T09:11:15;25.41;53.45
72712;SHT30;60828;40.292;17.998;2022-12-18T09:13:43;25.60;53.72
72712;SHT30;60828;40.292;17.998;2022-12-18T09:16:09;26.80;51.31
72712;SHT30;60828;40.292;17.998;2022-12-18T09:18:34;27.55;48.73
72712;SHT30;60828;40.292;17.998;2022-12-18T09:21:07;28.33;47.50
72712;SHT30;60828;40.292;17.998;2022-12-18T09:23:33;28.72;47.03
72712;SHT30;60828;40.292;17.998;2022-12-18T09:25:59;28.07;47.28
72712;SHT30;60828;40.292;17.998;2022-12-18T09:28:24;26.44;51.22
72712;SHT30;60828;40.292;17.998;2022-12-18T09:30:50;25.35;53.26
72712;SHT30;60828;40.292;17.998;2022-12-18T09:33:16;22.92;59.29
72712;SHT30;60828;40.292;17.998;2022-12-18T09:35:43;21.49;63.67
72712;SHT30;60828;40.292;17.998;2022-12-18T09:38:17;20.63;66.92
72712;SHT30;60828;40.292;17.998;2022-12-18T09:40:46;20.16;68.23
72712;SHT30;60828;40.292;17.998;2022-12-18T09:43:18;20.07;68.45
72712;SHT30;60828;40.292;17.998;2022-12-18T09:45:47;20.01;69.32
72712;SHT30;60828;40.292;17.998;2022-12-18T09:48:27;19.70;70.00
72712;SHT30;60828;40.292;17.998;2022-12-18T09:50:58;19.52;70.63
72712;SHT30;60828;40.292;17.998;2022-12-18T09:53:29;19.35;70.97
72712;SHT30;60828;40.292;17.998;2022-12-18T09:55:56;19.42;70.70
72712;SHT30;60828;40.292;17.998;2022-12-18T09:58:29;19.28;71.38
72712;SHT30;60828;40.292;17.998;2022-12-18T10:00:56;19.12;71.82
72712;SHT30;60828;40.292;17.998;2022-12-18T10:03:22;19.07;72.30
72712;SHT30;60828;40.292;17.998;2022-12-18T10:08:51;18.84;72.21
72712;SHT30;60828;40.292;17.998;2022-12-18T10:11:43;18.87;72.19
72712;SHT30;60828;40.292;17.998;2022-12-18T10:14:36;18.86;72.34
72712;SHT30;60828;40.292;17.998;2022-12-18T10:17:26;18.76;71.96
72712;SHT30;60828;40.292;17.998;2022-12-18T10:20:19;18.84;71.51
72712;SHT30;60828;40.292;17.998;2022-12-18T10:23:25;18.76;71.75
72712;SHT30;60828;40.292;17.998;2022-12-18T10:26:08;18.90;71.34
72712;SHT30;60828;40.292;17.998;2022-12-18T10:28:36;18.74;72.06
72712;SHT30;60828;40.292;17.998;2022-12-18T10:31:12;18.66;72.36
72712;SHT30;60828;40.292;17.998;2022-12-18T10:33:41;18.77;72.21
72712;SHT30;60828;40.292;17.998;2022-12-18T10:36:06;18.76;72.26
72712;SHT30;60828;40.292;17.998;2022-12-18T10:38:32;18.66;72.36
72712;SHT30;60828;40.292;17.998;2022-12-18T10:41:02;18.46;72.30
72712;SHT30;60828;40.292;17.998;2022-12-18T10:43:38;18.67;72.31
72712;SHT30;60828;40.292;17.998;2022-12-18T10:51:32;18.26;73.08
72712;SHT30;60828;40.292;17.998;2022-12-18T10:54:19;18.55;72.95
72712;SHT30;60828;40.292;17.998;2022-12-18T10:56:46;18.46;73.32
72712;SHT30;60828;40.292;17.998;2022-12-18T10:59:14;18.36;72.77
72712;SHT30;60828;40.292;17.998;2022-12-18T11:01:57;18.36;72.97
72712;SHT30;60828;40.292;17.998;2022-12-18T11:04:29;18.32;73.31
72712;SHT30;60828;40.292;17.998;2022-12-18T11:06:56;18.25;73.82
72712;SHT30;60828;40.292;17.998;2022-12-18T11:09:25;18.32;73.62
72712;SHT30;60828;40.292;17.998;2022-12-18T11:11:56;18.43;73.36
72712;SHT30;60828;40.292;17.998;2022-12-18T11:14:31;18.55;72.29
72712;SHT30;60828;40.292;17.998;2022-12-18T11:16:58;18.47;72.80
72712;SHT30;60828;40.292;17.998;2022-12-18T11:19:34;18.26;73.78
72712;SHT30;60828;40.292;17.998;2022-12-18T11:22:02;18.26;74.64
72712;SHT30;60828;40.292;17.998;2022-12-18T11:24:35;18.35;74.28
72712;SHT30;60828;40.292;17.998;2022-12-18T11:27:06;18.36;74.03
72712;SHT30;60828;40.292;17.998;2022-12-18T11:29:40;18.42;73.71
72712;SHT30;60828;40.292;17.998;2022-12-18T11:32:24;18.49;73.47
72712;SHT30;60828;40.292;17.998;2022-12-18T11:37:36;18.68;73.31
72712;SHT30;60828;40.292;17.998;2022-12-18T11:40:20;18.70;73.67
72712;SHT30;60828;40.292;17.998;2022-12-18T11:42:54;18.68;72.96
72712;SHT30;60828;40.292;17.998;2022-12-18T11:45:31;18.45;73.56
72712;SHT30;60828;40.292;17.998;2022-12-18T11:48:22;18.45;72.71
72712;SHT30;60828;40.292;17.998;2022-12-18T11:50:54;18.53;72.41
72712;SHT30;60828;40.292;17.998;2022-12-18T11:53:21;18.35;71.76
72712;SHT30;60828;40.292;17.998;2022-12-18T12:01:51;17.80;73.54
72712;SHT30;60828;40.292;17.998;2022-12-18T12:15:05;18.32;71.58
72712;SHT30;60828;40.292;17.998;2022-12-18T12:17:58;18.38;71.69
72712;SHT30;60828;40.292;17.998;2022-12-18T12:20:53;18.25;72.40
72712;SHT30;60828;40.292;17.998;2022-12-18T12:26:36;18.43;73.09
72712;SHT30;60828;40.292;17.998;2022-12-18T12:29:10;18.19;73.09
72712;SHT30;60828;40.292;17.998;2022-12-18T12:34:48;18.28;73.04
72712;SHT30;60828;40.292;17.998;2022-12-18T12:40:01;18.06;72.97
72712;SHT30;60828;40.292;17.998;2022-12-18T12:42:38;17.78;73.54
72712;SHT30;60828;40.292;17.998;2022-12-18T12:45:30;17.73;73.88
72712;SHT30;60828;40.292;17.998;2022-12-18T12:47:59;17.50;74.12
72712;SHT30;60828;40.292;17.998;2022-12-18T12:50:27;17.55;74.43
72712;SHT30;60828;40.292;17.998;2022-12-18T12:52:54;17.37;74.96
72712;SHT30;60828;40.292;17.998;2022-12-18T12:55:25;17.25;75.65
72712;SHT30;60828;40.292;17.998;2022-12-18T12:58:14;17.25;75.57
72712;SHT30;60828;40.292;17.998;2022-12-18T13:06:52;17.43;75.89
72712;SHT30;60828;40.292;17.998;2022-12-18T13:09:14;17.19;75.73
72712;SHT30;60828;40.292;17.998;2022-12-18T13:11:45;16.99;76.25
72712;SHT30;60828;40.292;17.998;2022-12-18T13:14:33;16.84;76.62
72712;SHT30;60828;40.292;17.998;2022-12-18T13:19:50;16.68;76.90
72712;SHT30;60828;40.292;17.998;2022-12-18T13:22:31;16.77;77.29
72712;SHT30;60828;40.292;17.998;2022-12-18T13:24:58;16.74;77.07
72712;SHT30;60828;40.292;17.998;2022-12-18T13:38:41;16.39;77.61
72712;SHT30;60828;40.292;17.998;2022-12-18T13:43:52;16.26;77.94
72712;SHT30;60828;40.292;17.998;2022-12-18T13:46:44;16.12;78.04
72712;SHT30;60828;40.292;17.998;2022-12-18T13:51:43;16.27;77.95
72712;SHT30;60828;40.292;17.998;2022-12-18T13:56:59;16.39;78.13
72712;SHT30;60828;40.292;17.998;2022-12-18T13:59:34;16.43;78.28
72712;SHT30;60828;40.292;17.998;2022-12-18T14:02:05;16.44;78.16
72712;SHT30;60828;40.292;17.998;2022-12-18T14:04:35;16.49;77.72
72712;SHT30;60828;40.292;17.998;2022-12-18T14:09:30;16.41;77.86
72712;SHT30;60828;40.292;17.998;2022-12-18T14:11:56;16.34;78.01
72712;SHT30;60828;40.292;17.998;2022-12-18T14:14:43;16.24;78.08
72712;SHT30;60828;40.292;17.998;2022-12-18T14:17:12;16.17;77.79
72712;SHT30;60828;40.292;17.998;2022-12-18T14:19:46;16.14;78.13
72712;SHT30;60828;40.292;17.998;2022-12-18T14:22:21;16.08;78.33
72712;SHT30;60828;40.292;17.998;2022-12-18T14:27:51;16.09;78.34
72712;SHT30;60828;40.292;17.998;2022-12-18T14:30:24;16.08;78.30
72712;SHT30;60828;40.292;17.998;2022-12-18T14:33:04;16.02;78.08
72712;SHT30;60828;40.292;17.998;2022-12-18T14:35:31;15.95;78.32
72712;SHT30;60828;40.292;17.998;2022-12-18T14:40:43;15.82;78.29
72712;SHT30;60828;40.292;17.998;2022-12-18T14:43:12;15.86;78.54
72712;SHT30;60828;40.292;17.998;2022-12-18T14:51:03;15.68;79.22
72712;SHT30;60828;40.292;17.998;2022-12-18T14:53:34;15.68;79.15
72712;SHT30;60828;40.292;17.998;2022-12-18T14:56:00;15.55;79.37
72712;SHT30;60828;40.292;17.998;2022-12-18T14:58:26;15.47;79.79
72712;SHT30;60828;40.292;17.998;2022-12-18T15:00:52;15.34;79.15
72712;SHT30;60828;40.292;17.998;2022-12-18T15:03:19;15.34;79.14
72712;SHT30;60828;40.292;17.998;2022-12-18T15:05:45;15.26;79.49
72712;SHT30;60828;40.292;17.998;2022-12-18T15:08:31;15.31;79.55
72712;SHT30;60828;40.292;17.998;2022-12-18T15:10:59;15.19;80.07
72712;SHT30;60828;40.292;17.998;2022-12-18T15:13:24;15.09;80.39
72712;SHT30;60828;40.292;17.998;2022-12-18T15:15:50;15.10;80.66
72712;SHT30;60828;40.292;17.998;2022-12-18T15:18:17;15.16;80.75
72712;SHT30;60828;40.292;17.998;2022-12-18T15:20:47;15.06;81.17
72712;SHT30;60828;40.292;17.998;2022-12-18T15:25:41;14.83;82.06
72712;SHT30;60828;40.292;17.998;2022-12-18T15:28:15;14.78;82.35
72712;SHT30;60828;40.292;17.998;2022-12-18T15:30:57;14.81;82.69
72712;SHT30;60828;40.292;17.998;2022-12-18T15:33:24;14.69;83.06
72712;SHT30;60828;40.292;17.998;2022-12-18T15:36:00;14.67;83.38
72712;SHT30;60828;40.292;17.998;2022-12-18T15:38:26;14.61;83.55
72712;SHT30;60828;40.292;17.998;2022-12-18T15:40:52;14.64;83.69
72712;SHT30;60828;40.292;17.998;2022-12-18T15:43:17;14.69;83.63
72712;SHT30;60828;40.292;17.998;2022-12-18T15:45:59;14.57;83.77
72712;SHT30;60828;40.292;17.998;2022-12-18T15:48:25;14.49;83.92
72712;SHT30;60828;40.292;17.998;2022-12-18T15:50:51;14.46;83.92
72712;SHT30;60828;40.292;17.998;2022-12-18T15:53:17;14.44;83.96
72712;SHT30;60828;40.292;17.998;2022-12-18T15:55:42;14.49;83.85
72712;SHT30;60828;40.292;17.998;2022-12-18T15:58:26;14.38;84.00
72712;SHT30;60828;40.292;17.998;2022-12-18T16:00:51;14.34;83.95
72712;SHT30;60828;40.292;17.998;2022-12-18T16:03:17;14.40;84.06
72712;SHT30;60828;40.292;17.998;2022-12-18T16:05:42;14.35;84.13
72712;SHT30;60828;40.292;17.998;2022-12-18T16:08:07;14.24;84.08
72712;SHT30;60828;40.292;17.998;2022-12-18T16:10:33;14.28;84.13
72712;SHT30;60828;40.292;17.998;2022-12-18T16:12:59;14.12;84.41
72712;SHT30;60828;40.292;17.998;2022-12-18T16:15:25;14.10;84.30
72712;SHT30;60828;40.292;17.998;2022-12-18T16:17:50;14.04;84.46
72712;SHT30;60828;40.292;17.998;2022-12-18T16:20:18;14.02;84.53
72712;SHT30;60828;40.292;17.998;2022-12-18T16:22:44;14.02;84.50
72712;SHT30;60828;40.292;17.998;2022-12-18T16:25:29;14.07;84.34
72712;SHT30;60828;40.292;17.998;2022-12-18T16:27:54;14.06;84.16
72712;SHT30;60828;40.292;17.998;2022-12-18T16:30:24;13.97;84.32
72712;SHT30;60828;40.292;17.998;2022-12-18T16:32:52;13.99;84.19
72712;SHT30;60828;40.292;17.998;2022-12-18T16:35:17;14.00;83.96
72712;SHT30;60828;40.292;17.998;2022-12-18T16:37:43;13.91;83.83
72712;SHT30;60828;40.292;17.998;2022-12-18T16:40:09;13.96;83.75
72712;SHT30;60828;40.292;17.998;2022-12-18T16:42:35;13.90;83.61
72712;SHT30;60828;40.292;17.998;2022-12-18T16:45:01;13.85;83.69
72712;SHT30;60828;40.292;17.998;2022-12-18T16:47:27;13.82;83.73
72712;SHT30;60828;40.292;17.998;2022-12-18T16:49:53;13.79;83.30
72712;SHT30;60828;40.292;17.998;2022-12-18T16:52:18;13.82;83.39
72712;SHT30;60828;40.292;17.998;2022-12-18T16:54:43;13.75;83.29
72712;SHT30;60828;40.292;17.998;2022-12-18T16:57:10;13.75;83.49
72712;SHT30;60828;40.292;17.998;2022-12-18T16:59:37;13.70;83.35
72712;SHT30;60828;40.292;17.998;2022-12-18T17:02:02;13.72;83.43
72712;SHT30;60828;40.292;17.998;2022-12-18T17:04:27;13.58;83.65
72712;SHT30;60828;40.292;17.998;2022-12-18T17:06:53;13.62;83.55